createdAt,value
2022-10-16T00:01:22.198Z,1.20
2022-10-16T00:03:49.037Z,0.65
2022-10-16T00:06:16.385Z,3.85
2022-10-16T00:08:43.774Z,1.52
2022-10-16T00:11:11.516Z,1.00
2022-10-16T00:13:38.891Z,3.58
2022-10-16T00:16:05.809Z,0.98
2022-10-16T00:18:32.264Z,1.30
2022-10-16T00:21:10.137Z,0.90
2022-10-16T00:23:36.845Z,1.67
2022-10-16T00:26:04.800Z,1.13
2022-10-16T00:28:31.379Z,2.47
2022-10-16T00:30:58.265Z,2.85
2022-10-16T00:33:24.785Z,1.90
2022-10-16T00:35:51.400Z,3.88
2022-10-16T00:38:18.072Z,1.25
2022-10-16T00:40:44.433Z,1.55
2022-10-16T00:43:32.464Z,1.30
2022-10-16T00:45:59.216Z,1.58
2022-10-16T00:48:25.647Z,0.73
2022-10-16T00:50:52.797Z,2.28
2022-10-16T00:53:19.144Z,4.78
2022-10-16T00:55:46.813Z,0.63
2022-10-16T00:58:13.258Z,1.65
2022-10-16T01:00:39.703Z,0.85
2022-10-16T01:03:22.827Z,0.77
2022-10-16T01:05:58.229Z,1.43
2022-10-16T01:08:40.079Z,1.27
2022-10-16T01:11:32.497Z,1.45
2022-10-16T01:14:01.008Z,1.10
2022-10-16T01:16:40.754Z,0.60
2022-10-16T01:19:12.964Z,2.20
2022-10-16T01:21:41.297Z,2.83
2022-10-16T01:24:12.801Z,1.27
2022-10-16T01:30:14.819Z,1.42
2022-10-16T01:32:42.560Z,4.20
2022-10-16T01:35:44.606Z,1.10
2022-10-16T01:38:17.105Z,1.42
2022-10-16T01:40:46.875Z,3.63
2022-10-16T01:43:16.426Z,2.67
2022-10-16T01:45:44.174Z,1.08
2022-10-16T01:48:12.762Z,2.70
2022-10-16T01:50:40.872Z,2.40
2022-10-16T01:53:09.207Z,1.67
2022-10-16T01:55:38.325Z,1.60
2022-10-16T01:58:06.776Z,3.70
2022-10-16T02:00:33.168Z,1.75
2022-10-16T02:02:59.860Z,2.50
2022-10-16T02:05:34.058Z,4.70
2022-10-16T02:08:03.202Z,1.63
2022-10-16T02:10:32.816Z,1.50
2022-10-16T02:13:17.734Z,1.15
2022-10-16T02:15:44.117Z,3.22
2022-10-16T02:18:11.352Z,2.05
2022-10-16T02:20:46.930Z,1.67
2022-10-16T02:23:15.742Z,4.07
2022-10-16T02:25:42.838Z,2.33
2022-10-16T02:28:09.238Z,2.00
2022-10-16T02:30:38.207Z,2.05
2022-10-16T02:33:06.262Z,2.53
2022-10-16T02:35:32.873Z,2.25
2022-10-16T02:37:59.586Z,1.80
2022-10-16T02:40:26.606Z,2.28
2022-10-16T02:42:53.792Z,3.28
2022-10-16T02:45:20.442Z,2.40
2022-10-16T02:47:46.990Z,1.65
2022-10-16T02:50:13.551Z,1.10
2022-10-16T02:52:39.917Z,2.35
2022-10-16T02:55:06.515Z,0.73
2022-10-16T02:57:32.974Z,0.93
2022-10-16T02:59:59.460Z,1.98
2022-10-16T03:02:25.800Z,1.13
2022-10-16T03:04:52.120Z,1.42
2022-10-16T03:07:18.490Z,3.30
2022-10-16T03:09:44.997Z,1.98
2022-10-16T03:12:12.935Z,2.10
2022-10-16T03:14:40.742Z,1.08
2022-10-16T03:17:07.393Z,2.30
2022-10-16T03:19:33.772Z,1.55
2022-10-16T03:22:00.133Z,2.83
2022-10-16T03:24:26.519Z,0.80
2022-10-16T03:26:52.843Z,0.85
2022-10-16T03:29:19.198Z,2.38
2022-10-16T03:31:45.635Z,2.58
2022-10-16T03:34:12.095Z,1.77
2022-10-16T03:36:38.525Z,3.17
2022-10-16T03:39:04.831Z,2.05
2022-10-16T03:41:31.201Z,0.90
2022-10-16T03:43:57.539Z,1.83
2022-10-16T03:46:23.977Z,1.85
2022-10-16T03:48:50.336Z,1.00
2022-10-16T03:51:16.806Z,0.55
2022-10-16T03:53:43.157Z,1.17
2022-10-16T03:56:09.528Z,3.92
2022-10-16T03:58:35.935Z,2.03
2022-10-16T04:01:12.527Z,2.83
2022-10-16T04:03:39.029Z,3.20
2022-10-16T04:06:05.412Z,2.33
2022-10-16T04:08:31.802Z,1.38
2022-10-16T04:10:58.109Z,1.35
2022-10-16T04:13:24.486Z,1.13
2022-10-16T04:15:50.794Z,0.80
2022-10-16T04:18:17.106Z,1.33
2022-10-16T04:20:43.449Z,2.10
2022-10-16T04:23:09.844Z,2.33
2022-10-16T04:25:36.169Z,1.52
2022-10-16T04:28:02.526Z,1.38
2022-10-16T04:30:28.863Z,2.42
2022-10-16T04:32:55.305Z,1.85
2022-10-16T04:35:22.636Z,1.23
2022-10-16T04:37:49.261Z,1.85
2022-10-16T04:40:15.695Z,1.33
2022-10-16T04:42:42.033Z,4.70
2022-10-16T04:45:11.950Z,19.60
2022-10-16T04:47:41.245Z,4.25
2022-10-16T04:50:08.096Z,1.77
2022-10-16T04:55:03.593Z,2.45
2022-10-16T04:57:30.450Z,3.70
2022-10-16T04:59:56.863Z,2.25
2022-10-16T05:02:23.264Z,7.63
2022-10-16T05:04:49.662Z,3.15
2022-10-16T05:07:16.395Z,4.72
2022-10-16T05:09:42.701Z,2.15
2022-10-16T05:12:09.023Z,3.03
2022-10-16T05:14:35.354Z,1.23
2022-10-16T05:17:01.708Z,3.17
2022-10-16T05:19:29.000Z,4.93
2022-10-16T05:21:55.559Z,3.88
2022-10-16T05:24:21.884Z,3.80
2022-10-16T05:26:48.581Z,4.32
2022-10-16T05:29:15.112Z,3.75
2022-10-16T05:31:41.457Z,2.88
2022-10-16T05:34:07.857Z,5.18
2022-10-16T05:36:34.189Z,3.38
2022-10-16T05:39:00.465Z,2.03
2022-10-16T05:41:27.220Z,6.38
2022-10-16T05:43:53.902Z,5.55
2022-10-16T05:46:20.539Z,4.05
2022-10-16T05:48:46.885Z,3.60
2022-10-16T05:51:14.326Z,3.25
2022-10-16T05:53:41.111Z,2.03
2022-10-16T05:56:08.347Z,4.68
2022-10-16T05:58:36.530Z,3.65
2022-10-16T06:01:04.382Z,4.93
2022-10-16T06:03:30.959Z,3.00
2022-10-16T06:05:57.441Z,8.48
2022-10-16T06:08:24.103Z,2.45
2022-10-16T06:11:00.685Z,2.20
2022-10-16T06:13:27.056Z,3.13
2022-10-16T06:15:53.416Z,2.15
2022-10-16T06:18:19.776Z,65.88
2022-10-16T06:20:46.120Z,4.82
2022-10-16T06:23:12.476Z,2.97
2022-10-16T06:25:38.839Z,2.55
2022-10-16T06:28:05.190Z,3.03
2022-10-16T06:30:31.563Z,4.68
2022-10-16T06:32:57.923Z,3.75
2022-10-16T06:35:24.797Z,1.83
2022-10-16T06:37:51.159Z,4.13
2022-10-16T06:40:17.567Z,4.47
2022-10-16T06:42:44.043Z,3.70
2022-10-16T06:45:10.969Z,3.72
2022-10-16T06:47:37.605Z,2.47
2022-10-16T06:50:04.748Z,2.90
2022-10-16T06:52:31.183Z,4.20
2022-10-16T06:54:57.529Z,6.28
2022-10-16T06:57:23.880Z,7.25
2022-10-16T06:59:55.121Z,3.72
2022-10-16T07:02:21.732Z,6.40
2022-10-16T07:04:48.263Z,6.22
2022-10-16T07:07:14.637Z,7.80
2022-10-16T07:09:41.249Z,4.03
2022-10-16T07:12:07.628Z,5.10
2022-10-16T07:14:33.979Z,6.32
2022-10-16T07:17:00.331Z,4.88
2022-10-16T07:19:29.391Z,4.40
2022-10-16T07:21:57.905Z,3.97
2022-10-16T07:24:24.369Z,6.97
2022-10-16T07:26:51.749Z,5.00
2022-10-16T07:29:19.452Z,6.80
2022-10-16T07:31:45.857Z,6.63
2022-10-16T07:34:13.070Z,4.90
2022-10-16T07:36:39.522Z,3.55
2022-10-16T07:39:06.108Z,4.57
2022-10-16T07:41:33.813Z,7.78
2022-10-16T07:44:01.509Z,4.28
2022-10-16T07:46:28.261Z,3.35
2022-10-16T07:48:54.689Z,4.25
2022-10-16T07:51:22.273Z,5.05
2022-10-16T07:53:49.243Z,4.10
2022-10-16T07:56:16.209Z,5.10
2022-10-16T07:58:42.617Z,5.03
2022-10-16T08:01:10.197Z,3.70
2022-10-16T08:03:36.719Z,4.07
2022-10-16T08:06:04.378Z,2.83
2022-10-16T08:08:30.830Z,4.78
2022-10-16T08:10:57.237Z,4.53
2022-10-16T08:13:23.653Z,5.50
2022-10-16T08:15:50.158Z,5.63
2022-10-16T08:18:17.070Z,5.25
2022-10-16T08:20:43.738Z,4.05
2022-10-16T08:23:11.607Z,6.72
2022-10-16T08:25:39.135Z,3.95
2022-10-16T08:28:06.668Z,5.78
2022-10-16T08:30:33.066Z,4.50
2022-10-16T08:32:59.448Z,3.97
2022-10-16T08:35:25.895Z,4.28
2022-10-16T08:37:52.292Z,4.50
2022-10-16T08:40:20.743Z,4.53
2022-10-16T08:43:00.006Z,4.63
2022-10-16T08:45:29.409Z,5.22
2022-10-16T08:47:58.817Z,4.75
2022-10-16T08:50:27.969Z,6.22
2022-10-16T08:52:55.287Z,5.05
2022-10-16T08:55:30.944Z,5.68
2022-10-16T08:57:57.422Z,4.80
2022-10-16T09:00:24.250Z,5.35
2022-10-16T09:02:58.164Z,3.40
2022-10-16T09:05:49.136Z,7.10
2022-10-16T09:08:29.938Z,11.15
2022-10-16T09:10:59.937Z,8.75
2022-10-16T09:13:37.219Z,6.60
2022-10-16T09:16:23.257Z,3.28
2022-10-16T09:18:49.703Z,5.63
2022-10-16T09:21:20.567Z,28.30
2022-10-16T09:23:48.112Z,7.78
2022-10-16T09:26:15.285Z,5.72
2022-10-16T09:28:41.851Z,9.02
2022-10-16T09:31:19.145Z,5.90
2022-10-16T09:33:48.064Z,4.68
2022-10-16T09:36:15.002Z,2.80
2022-10-16T09:38:42.050Z,3.97
2022-10-16T09:41:19.685Z,3.35
2022-10-16T09:43:56.711Z,3.70
2022-10-16T09:46:25.763Z,5.57
2022-10-16T09:48:54.519Z,3.00
2022-10-16T09:51:22.866Z,3.63
2022-10-16T09:53:49.459Z,3.20
2022-10-16T09:56:37.124Z,2.95
2022-10-16T09:59:09.574Z,3.00
2022-10-16T10:01:44.237Z,3.42
2022-10-16T10:04:11.008Z,2.53
2022-10-16T10:06:39.200Z,6.35
2022-10-16T10:09:05.953Z,4.47
2022-10-16T10:11:39.959Z,4.53
2022-10-16T10:14:07.379Z,3.08
2022-10-16T10:16:33.790Z,2.55
2022-10-16T10:19:00.673Z,4.03
2022-10-16T10:21:27.120Z,2.83
2022-10-16T10:23:57.909Z,4.35
2022-10-16T10:26:28.952Z,2.95
2022-10-16T10:29:01.591Z,5.10
2022-10-16T10:31:34.720Z,4.18
2022-10-16T10:34:21.353Z,7.00
2022-10-16T10:36:54.577Z,5.82
2022-10-16T10:41:58.542Z,3.63
2022-10-16T10:44:43.938Z,4.32
2022-10-16T10:47:45.912Z,3.67
2022-10-16T10:50:21.298Z,4.47
2022-10-16T10:53:08.497Z,3.08
2022-10-16T10:55:37.907Z,3.28
2022-10-16T10:58:24.693Z,2.63
2022-10-16T11:00:54.333Z,3.03
2022-10-16T11:03:24.059Z,4.05
2022-10-16T11:06:05.890Z,3.70
2022-10-16T11:08:59.054Z,6.63
2022-10-16T11:11:34.332Z,4.20
2022-10-16T11:14:19.206Z,4.03
2022-10-16T11:16:49.191Z,5.82
2022-10-16T11:19:19.750Z,4.65
2022-10-16T11:21:52.731Z,4.28
2022-10-16T11:24:25.334Z,3.28
2022-10-16T11:26:53.142Z,3.67
2022-10-16T11:29:24.447Z,4.25
2022-10-16T11:31:53.609Z,3.20
2022-10-16T11:34:31.774Z,2.50
2022-10-16T11:37:06.240Z,2.70
2022-10-16T11:39:32.984Z,2.90
2022-10-16T11:41:59.362Z,4.63
2022-10-16T11:44:44.823Z,3.28
2022-10-16T11:50:10.161Z,2.95
2022-10-16T11:52:46.098Z,3.72
2022-10-16T11:55:18.171Z,6.28
2022-10-16T11:57:50.503Z,2.90
2022-10-16T12:00:37.107Z,2.63
2022-10-16T12:03:06.680Z,3.05
2022-10-16T12:05:34.001Z,2.50
2022-10-16T12:08:03.456Z,3.42
2022-10-16T12:10:32.976Z,2.85
2022-10-16T12:12:59.528Z,3.97
2022-10-16T12:15:40.923Z,3.15
2022-10-16T12:18:24.023Z,2.40
2022-10-16T12:21:05.296Z,4.13
2022-10-16T12:23:32.043Z,3.05
2022-10-16T12:25:59.785Z,2.00
2022-10-16T12:28:32.882Z,2.70
2022-10-16T12:31:03.363Z,6.05
2022-10-16T12:33:33.973Z,4.75
2022-10-16T12:36:01.498Z,6.38
2022-10-16T12:38:29.380Z,3.75
2022-10-16T12:41:00.549Z,2.58
2022-10-16T12:43:29.875Z,2.40
2022-10-16T12:46:00.739Z,4.20
2022-10-16T12:48:36.818Z,2.80
2022-10-16T12:51:28.891Z,5.35
2022-10-16T12:54:13.816Z,2.70
2022-10-16T12:56:44.283Z,4.80
2022-10-16T12:59:16.844Z,4.68
2022-10-16T13:02:09.605Z,4.53
2022-10-16T13:04:35.964Z,4.80
2022-10-16T13:07:19.132Z,4.20
2022-10-16T13:09:54.703Z,2.78
2022-10-16T13:12:24.101Z,5.38
2022-10-16T13:14:53.710Z,3.22
2022-10-16T13:17:43.720Z,3.33
2022-10-16T13:20:19.483Z,3.72
2022-10-16T13:22:57.331Z,3.13
2022-10-16T13:25:36.429Z,2.42
2022-10-16T13:28:04.288Z,2.15
2022-10-16T13:30:31.932Z,3.63
2022-10-16T13:33:10.570Z,3.53
2022-10-16T13:35:37.355Z,3.28
2022-10-16T13:38:04.890Z,5.45
2022-10-16T13:40:31.278Z,2.97
2022-10-16T13:43:00.681Z,3.45
2022-10-16T13:45:27.129Z,2.80
2022-10-16T13:48:06.606Z,5.47
2022-10-16T13:50:33.312Z,5.07
2022-10-16T13:53:06.813Z,5.72
2022-10-16T13:58:08.120Z,4.60
2022-10-16T14:00:34.638Z,3.63
2022-10-16T14:03:21.278Z,5.85
2022-10-16T14:05:55.614Z,3.90
2022-10-16T14:08:23.407Z,5.32
2022-10-16T14:10:51.170Z,8.20
2022-10-16T14:13:19.371Z,7.45
2022-10-16T14:15:48.368Z,2.83
2022-10-16T14:18:19.561Z,4.80
2022-10-16T14:20:46.272Z,2.90
2022-10-16T14:23:23.384Z,5.75
2022-10-16T14:25:49.856Z,4.18
2022-10-16T14:28:23.393Z,4.70
2022-10-16T14:30:51.236Z,5.13
2022-10-16T14:33:25.678Z,6.50
2022-10-16T14:36:03.254Z,6.70
2022-10-16T14:38:30.227Z,4.30
2022-10-16T14:40:58.073Z,4.10
2022-10-16T14:43:33.708Z,4.05
2022-10-16T14:46:00.442Z,5.53
2022-10-16T14:48:26.847Z,4.55
2022-10-16T14:50:53.559Z,9.50
2022-10-16T14:53:20.010Z,5.93
2022-10-16T14:55:46.450Z,3.70
2022-10-16T14:58:16.068Z,6.22
2022-10-16T15:00:42.536Z,5.50
2022-10-16T15:03:08.958Z,3.50
2022-10-16T15:05:35.482Z,3.55
2022-10-16T15:08:01.878Z,8.50
2022-10-16T15:10:29.726Z,5.68
2022-10-16T15:12:56.245Z,5.15
2022-10-16T15:15:35.032Z,4.97
2022-10-16T15:18:02.187Z,4.07
2022-10-16T15:20:29.539Z,4.25
2022-10-16T15:22:55.925Z,4.22
2022-10-16T15:25:30.873Z,6.25
2022-10-16T15:27:57.221Z,8.23
2022-10-16T15:30:23.573Z,5.90
2022-10-16T15:32:50.297Z,6.85
2022-10-16T15:35:16.788Z,7.30
2022-10-16T15:37:43.243Z,9.48
2022-10-16T15:40:10.502Z,7.43
2022-10-16T15:42:37.033Z,7.07
2022-10-16T15:45:04.868Z,5.80
2022-10-16T15:47:31.228Z,6.20
2022-10-16T15:49:57.608Z,6.28
2022-10-16T15:52:24.312Z,5.32
2022-10-16T15:54:53.495Z,5.30
2022-10-16T15:57:21.177Z,4.68
2022-10-16T15:59:47.626Z,10.60
2022-10-16T16:02:14.067Z,5.53
2022-10-16T16:04:44.321Z,4.00
2022-10-16T16:07:11.188Z,7.45
2022-10-16T16:09:37.618Z,10.68
2022-10-16T16:12:04.043Z,6.25
2022-10-16T16:14:30.407Z,7.65
2022-10-16T16:16:57.500Z,9.52
2022-10-16T16:19:24.010Z,9.40
2022-10-16T16:21:50.531Z,21.50
2022-10-16T16:24:17.088Z,22.90
2022-10-16T16:26:44.556Z,23.77
2022-10-16T16:29:14.607Z,13.70
2022-10-16T16:31:41.497Z,13.80
2022-10-16T16:34:08.475Z,13.63
2022-10-16T16:36:35.600Z,10.23
2022-10-16T16:39:02.102Z,9.57
2022-10-16T16:41:29.666Z,8.93
2022-10-16T16:43:56.097Z,8.82
2022-10-16T16:46:22.907Z,8.07
2022-10-16T16:48:51.184Z,9.13
2022-10-16T16:51:20.360Z,11.40
2022-10-16T16:53:47.830Z,12.57
2022-10-16T16:56:14.652Z,9.75
2022-10-16T16:58:41.076Z,9.65
2022-10-16T17:01:25.440Z,11.48
2022-10-16T17:03:53.249Z,13.00
2022-10-16T17:06:21.049Z,12.00
2022-10-16T17:08:48.339Z,10.00
2022-10-16T17:11:16.629Z,9.77
2022-10-16T17:13:43.100Z,9.88
2022-10-16T17:16:09.683Z,13.98
2022-10-16T17:18:36.549Z,10.07
2022-10-16T17:21:04.997Z,13.35
2022-10-16T17:23:31.761Z,8.73
2022-10-16T17:26:03.059Z,11.10
2022-10-16T17:28:29.439Z,14.63
2022-10-16T17:30:56.569Z,10.02
2022-10-16T17:33:22.923Z,16.80
2022-10-16T17:35:49.368Z,12.98
2022-10-16T17:38:16.685Z,12.80
2022-10-16T17:40:43.716Z,15.13
2022-10-16T17:43:10.218Z,11.77
2022-10-16T17:45:37.298Z,11.55
2022-10-16T17:48:05.712Z,11.35
2022-10-16T17:50:32.150Z,18.25
2022-10-16T17:52:58.585Z,13.82
2022-10-16T17:55:27.216Z,16.00
2022-10-16T17:57:53.882Z,18.45
2022-10-16T18:00:20.655Z,21.20
2022-10-16T18:02:49.117Z,18.60
2022-10-16T18:05:15.629Z,14.88
2022-10-16T18:07:42.095Z,13.45
2022-10-16T18:10:11.864Z,19.10
2022-10-16T18:12:38.652Z,14.70
2022-10-16T18:15:05.286Z,14.35
2022-10-16T18:17:33.789Z,12.75
2022-10-16T18:20:00.210Z,10.65
2022-10-16T18:22:27.449Z,13.43
2022-10-16T18:24:53.806Z,17.27
2022-10-16T18:27:20.215Z,25.25
2022-10-16T18:29:46.759Z,24.33
2022-10-16T18:32:13.192Z,13.65
2022-10-16T18:34:39.549Z,15.57
2022-10-16T18:37:05.909Z,16.30
2022-10-16T18:39:32.262Z,14.20
2022-10-16T18:41:59.995Z,11.93
2022-10-16T18:44:27.093Z,14.45
2022-10-16T18:46:57.103Z,11.07
2022-10-16T18:49:26.243Z,7.82
2022-10-16T18:51:56.580Z,11.20
2022-10-16T18:54:23.779Z,8.55
2022-10-16T18:56:53.615Z,10.70
2022-10-16T18:59:19.971Z,7.55
2022-10-16T19:01:47.639Z,9.32
2022-10-16T19:04:15.281Z,12.52
2022-10-16T19:06:43.342Z,12.68
2022-10-16T19:09:10.010Z,13.02
2022-10-16T19:11:39.327Z,14.25
2022-10-16T19:14:07.852Z,14.63
2022-10-16T19:16:35.254Z,8.55
2022-10-16T19:19:03.106Z,12.05
2022-10-16T19:21:30.163Z,9.77
2022-10-16T19:23:57.766Z,9.20
2022-10-16T19:26:24.503Z,7.95
2022-10-16T19:28:53.266Z,10.35
2022-10-16T19:31:21.123Z,16.65
2022-10-16T19:33:48.245Z,14.07
2022-10-16T19:36:23.862Z,11.32
2022-10-16T19:38:55.226Z,9.13
2022-10-16T19:41:21.745Z,13.77
2022-10-16T19:43:48.124Z,10.88
2022-10-16T19:46:15.948Z,11.48
2022-10-16T19:48:42.706Z,11.80
2022-10-16T19:51:13.321Z,11.57
2022-10-16T19:53:39.897Z,10.07
2022-10-16T19:56:16.959Z,9.38
2022-10-16T19:58:44.229Z,13.80
2022-10-16T20:01:11.553Z,14.50
2022-10-16T20:03:40.274Z,12.73
2022-10-16T20:06:08.256Z,11.68
2022-10-16T20:08:35.669Z,11.43
2022-10-16T20:11:02.791Z,15.05
2022-10-16T20:13:29.913Z,11.05
2022-10-16T20:15:56.400Z,9.80
2022-10-16T20:18:23.216Z,12.80
2022-10-16T20:20:51.092Z,13.90
2022-10-16T20:23:21.060Z,10.50
2022-10-16T20:25:47.904Z,12.68
2022-10-16T20:28:16.349Z,10.80
2022-10-16T20:30:43.750Z,12.10
2022-10-16T20:33:11.219Z,14.23
2022-10-16T20:35:39.085Z,12.02
2022-10-16T20:38:06.530Z,11.05
2022-10-16T20:40:34.201Z,15.60
2022-10-16T20:43:00.709Z,11.07
2022-10-16T20:45:27.664Z,13.77
2022-10-16T20:47:54.102Z,11.23
2022-10-16T20:50:20.468Z,12.60
2022-10-16T20:55:18.025Z,16.60
2022-10-16T20:57:44.907Z,13.25
2022-10-16T21:00:11.817Z,21.70
2022-10-16T21:02:38.261Z,16.88
2022-10-16T21:05:05.218Z,14.00
2022-10-16T21:07:32.024Z,16.13
2022-10-16T21:09:58.703Z,12.23
2022-10-16T21:12:26.401Z,14.25
2022-10-16T21:15:13.468Z,19.63
2022-10-16T21:17:39.584Z,14.23
2022-10-16T21:20:06.108Z,11.57
2022-10-16T21:22:32.556Z,13.63
2022-10-16T21:24:58.986Z,11.88
2022-10-16T21:27:25.675Z,13.40
2022-10-16T21:29:52.660Z,13.40
2022-10-16T21:32:21.302Z,13.23
2022-10-16T21:34:48.221Z,12.60
2022-10-16T21:37:14.696Z,10.73
2022-10-16T21:39:41.236Z,15.98
2022-10-16T21:42:07.651Z,14.07
2022-10-16T21:44:34.111Z,15.90
2022-10-16T21:47:00.557Z,10.98
2022-10-16T21:49:27.371Z,12.48
2022-10-16T21:51:53.804Z,9.77
2022-10-16T21:54:21.527Z,11.20
2022-10-16T21:56:48.138Z,9.23
2022-10-16T21:59:14.814Z,11.45
2022-10-16T22:01:41.958Z,12.95
2022-10-16T22:04:09.964Z,20.08
2022-10-16T22:06:36.325Z,11.45
2022-10-16T22:09:03.099Z,10.50
2022-10-16T22:11:36.387Z,15.05
2022-10-16T22:14:04.511Z,10.52
2022-10-16T22:16:31.337Z,10.65
2022-10-16T22:18:59.803Z,22.00
2022-10-16T22:21:28.036Z,10.23
2022-10-16T22:23:54.550Z,10.90
2022-10-16T22:26:21.383Z,12.57
2022-10-16T22:28:48.138Z,21.30
2022-10-16T22:31:15.421Z,9.40
2022-10-16T22:33:42.445Z,11.27
2022-10-16T22:36:11.085Z,12.40
2022-10-16T22:38:37.692Z,10.98
2022-10-16T22:41:08.138Z,12.70
2022-10-16T22:43:35.781Z,10.35
2022-10-16T22:46:05.881Z,12.35
2022-10-16T22:48:32.744Z,8.65
2022-10-16T22:50:59.127Z,14.90
2022-10-16T22:53:25.546Z,11.80
2022-10-16T22:55:51.920Z,10.52
2022-10-16T22:58:18.274Z,14.45
2022-10-16T23:00:45.014Z,11.32
2022-10-16T23:03:11.562Z,8.45
2022-10-16T23:05:41.030Z,10.68
2022-10-16T23:08:07.535Z,13.85
2022-10-16T23:10:34.416Z,10.95
2022-10-16T23:13:00.831Z,10.68
2022-10-16T23:15:27.244Z,9.95
2022-10-16T23:17:53.591Z,9.23
2022-10-16T23:20:19.993Z,7.53
2022-10-16T23:22:46.353Z,11.27
2022-10-16T23:25:13.026Z,9.18
2022-10-16T23:27:39.393Z,8.80
2022-10-16T23:30:06.879Z,10.00
2022-10-16T23:32:33.668Z,13.90
2022-10-16T23:35:00.290Z,8.82
2022-10-16T23:37:26.731Z,8.45
2022-10-16T23:39:54.081Z,11.32
2022-10-16T23:42:20.696Z,14.25
2022-10-16T23:44:47.121Z,7.88
2022-10-16T23:47:13.507Z,13.10
2022-10-16T23:49:39.861Z,5.60
2022-10-16T23:52:07.056Z,7.43
2022-10-16T23:54:33.442Z,7.85
2022-10-16T23:56:59.863Z,7.05
2022-10-16T23:59:26.244Z,6.32
